createdAt,value
2018-11-22T00:00:20.783Z,31.40
2018-11-22T00:01:22.329Z,33.00
2018-11-22T00:02:21.370Z,31.90
2018-11-22T00:03:21.385Z,31.20
2018-11-22T00:04:19.788Z,31.40
2018-11-22T00:05:20.796Z,32.10
2018-11-22T00:06:24.610Z,32.50
2018-11-22T00:07:28.324Z,33.00
2018-11-22T00:08:22.883Z,33.00
2018-11-22T00:09:23.335Z,32.90
2018-11-22T00:10:30.781Z,33.50
2018-11-22T00:11:21.786Z,32.40
2018-11-22T00:12:24.842Z,32.60
2018-11-22T00:13:42.442Z,30.90
2018-11-22T00:14:21.633Z,32.00
2018-11-22T00:15:21.849Z,31.90
2018-11-22T00:16:23.654Z,31.90
2018-11-22T00:17:26.811Z,31.40
2018-11-22T00:18:23.285Z,32.60
2018-11-22T00:19:38.323Z,32.20
2018-11-22T00:20:45.371Z,31.60
2018-11-22T00:21:24.323Z,32.60
2018-11-22T00:22:24.274Z,31.70
2018-11-22T00:23:25.035Z,32.20
2018-11-22T00:25:59.194Z,31.70
2018-11-22T00:26:59.792Z,31.60
2018-11-22T00:27:57.387Z,32.60
2018-11-22T00:29:00.333Z,32.80
2018-11-22T00:29:57.956Z,31.90
2018-11-22T00:30:59.878Z,31.50
2018-11-22T00:31:56.380Z,31.90
2018-11-22T00:32:56.473Z,32.10
2018-11-22T00:34:00.380Z,32.70
2018-11-22T00:34:57.879Z,31.60
2018-11-22T00:35:58.894Z,30.40
2018-11-22T00:37:13.921Z,31.80
2018-11-22T00:37:58.964Z,31.70
2018-11-22T00:38:59.345Z,31.90
2018-11-22T00:40:02.358Z,31.10
2018-11-22T00:41:04.427Z,31.10
2018-11-22T00:41:58.834Z,31.20
2018-11-22T00:43:02.865Z,33.00
2018-11-22T00:44:04.343Z,31.90
2018-11-22T00:44:58.596Z,31.80
2018-11-22T00:46:05.391Z,31.40
2018-11-22T00:47:00.428Z,31.20
2018-11-22T00:47:59.197Z,31.30
2018-11-22T00:49:05.887Z,30.50
2018-11-22T00:50:02.843Z,31.40
2018-11-22T00:51:01.430Z,32.00
2018-11-22T00:52:01.385Z,31.10
2018-11-22T00:53:03.886Z,31.50
2018-11-22T00:54:00.119Z,31.00
2018-11-22T00:55:00.306Z,30.70
2018-11-22T00:56:04.442Z,30.70
2018-11-22T00:57:07.411Z,30.00
2018-11-22T00:58:01.870Z,30.10
2018-11-22T00:59:02.894Z,30.00
2018-11-22T01:00:04.945Z,29.70
2018-11-22T01:01:08.213Z,29.70
2018-11-22T01:02:03.390Z,28.90
2018-11-22T01:03:03.591Z,29.70
2018-11-22T01:04:08.426Z,29.60
2018-11-22T01:05:02.022Z,28.50
2018-11-22T01:06:17.964Z,29.50
2018-11-22T01:07:05.898Z,29.80
2018-11-22T01:08:05.376Z,29.90
2018-11-22T01:09:04.390Z,28.80
2018-11-22T01:10:04.429Z,29.40
2018-11-22T01:11:05.602Z,28.60
2018-11-22T01:12:04.877Z,27.90
2018-11-22T01:13:03.402Z,28.70
2018-11-22T01:14:05.425Z,28.90
2018-11-22T01:15:03.779Z,28.50
2018-11-22T01:16:03.976Z,28.10
2018-11-22T01:17:04.229Z,28.60
2018-11-22T01:18:06.912Z,27.90
2018-11-22T01:19:04.509Z,28.10
2018-11-22T01:20:04.699Z,27.90
2018-11-22T01:21:04.905Z,28.50
2018-11-22T01:22:08.880Z,28.70
2018-11-22T01:23:27.932Z,27.10
2018-11-22T01:24:09.383Z,27.30
2018-11-22T01:25:13.402Z,27.70
2018-11-22T01:26:21.379Z,27.40
2018-11-22T01:27:09.924Z,27.80
2018-11-22T01:28:06.653Z,28.20
2018-11-22T01:29:06.122Z,27.60
2018-11-22T01:30:10.881Z,26.90
2018-11-22T01:31:10.963Z,27.30
2018-11-22T01:32:10.561Z,27.00
2018-11-22T01:33:07.813Z,27.30
2018-11-22T01:34:08.380Z,26.90
2018-11-22T01:35:07.084Z,26.60
2018-11-22T01:36:10.879Z,26.30
2018-11-22T01:37:07.452Z,26.00
2018-11-22T01:38:09.384Z,27.50
2018-11-22T01:39:10.321Z,28.00
2018-11-22T01:40:08.040Z,27.00
2018-11-22T01:41:11.895Z,27.10
2018-11-22T01:42:14.330Z,26.10
2018-11-22T01:43:16.390Z,26.30
2018-11-22T01:44:16.387Z,26.70
2018-11-22T01:45:11.475Z,26.50
2018-11-22T01:46:10.889Z,26.10
2018-11-22T01:47:12.833Z,25.80
2018-11-22T01:48:09.549Z,26.30
2018-11-22T01:49:32.380Z,26.80
2018-11-22T01:50:39.837Z,26.40
2018-11-22T01:51:11.150Z,26.90
2018-11-22T01:52:12.381Z,26.60
2018-11-22T01:53:17.388Z,25.70
2018-11-22T01:54:15.339Z,25.60
2018-11-22T01:55:12.339Z,26.30
2018-11-22T01:56:16.333Z,26.20
2018-11-22T01:57:11.214Z,25.80
2018-11-22T01:58:18.011Z,25.90
2018-11-22T01:59:12.335Z,26.40
2018-11-22T02:00:13.401Z,26.10
2018-11-22T02:01:11.903Z,26.70
2018-11-22T02:02:13.079Z,26.20
2018-11-22T02:03:15.881Z,26.70
2018-11-22T02:04:12.450Z,25.70
2018-11-22T02:05:12.647Z,26.30
2018-11-22T02:06:14.414Z,25.90
2018-11-22T02:07:16.339Z,25.50
2018-11-22T02:08:14.216Z,26.40
2018-11-22T02:09:29.842Z,26.20
2018-11-22T02:10:21.334Z,26.30
2018-11-22T02:11:20.967Z,25.20
2018-11-22T02:12:14.218Z,25.30
2018-11-22T02:13:15.396Z,26.60
2018-11-22T02:14:14.843Z,25.70
2018-11-22T02:15:16.350Z,26.50
2018-11-22T02:16:36.883Z,26.00
2018-11-22T02:17:18.385Z,25.60
2018-11-22T02:18:14.593Z,25.50
2018-11-22T02:19:15.873Z,25.30
2018-11-22T02:20:16.887Z,26.10
2018-11-22T02:21:15.143Z,26.20
2018-11-22T02:22:17.873Z,25.40
2018-11-22T02:23:17.332Z,25.90
2018-11-22T02:24:20.886Z,26.00
2018-11-22T02:25:18.348Z,24.60
2018-11-22T02:26:17.901Z,25.10
2018-11-22T02:27:17.154Z,26.00
2018-11-22T02:28:19.878Z,26.20
2018-11-22T02:29:16.341Z,25.90
2018-11-22T02:30:18.377Z,25.20
2018-11-22T02:31:19.831Z,25.50
2018-11-22T02:32:16.917Z,25.70
2018-11-22T02:33:17.833Z,25.80
2018-11-22T02:34:18.178Z,26.60
2018-11-22T02:35:19.494Z,25.60
2018-11-22T02:36:17.561Z,25.30
2018-11-22T02:37:19.333Z,24.20
2018-11-22T02:38:40.418Z,26.00
2018-11-22T02:39:17.997Z,25.60
2018-11-22T02:40:18.250Z,25.50
2018-11-22T02:41:22.390Z,26.20
2018-11-22T02:42:21.832Z,26.00
2018-11-22T02:43:20.339Z,25.40
2018-11-22T02:44:20.861Z,25.40
2018-11-22T02:45:20.913Z,24.60
2018-11-22T02:46:20.877Z,24.90
2018-11-22T02:47:19.388Z,26.10
2018-11-22T02:48:43.546Z,26.40
2018-11-22T02:49:26.396Z,26.00
2018-11-22T02:50:20.841Z,25.90
2018-11-22T02:51:23.885Z,25.50
2018-11-22T02:52:22.343Z,25.70
2018-11-22T02:53:21.426Z,25.00
2018-11-22T02:54:20.627Z,26.30
2018-11-22T02:55:23.840Z,25.30
2018-11-22T02:56:21.061Z,25.80
2018-11-22T02:57:21.218Z,26.00
2018-11-22T02:58:25.406Z,26.30
2018-11-22T02:59:21.494Z,25.60
2018-11-22T03:00:22.676Z,27.10
2018-11-22T03:01:37.381Z,26.00
2018-11-22T03:02:24.844Z,25.80
2018-11-22T03:03:24.195Z,26.40
2018-11-22T03:04:29.331Z,26.90
2018-11-22T03:05:26.382Z,26.20
2018-11-22T03:06:24.014Z,26.40
2018-11-22T03:07:24.374Z,25.70
2018-11-22T03:08:26.916Z,26.80
2018-11-22T03:09:25.886Z,26.60
2018-11-22T03:10:24.369Z,26.90
2018-11-22T03:11:25.173Z,26.80
2018-11-22T03:12:25.850Z,27.10
2018-11-22T03:13:24.887Z,26.80
2018-11-22T03:14:26.843Z,26.40
2018-11-22T03:15:25.880Z,26.40
2018-11-22T03:16:25.884Z,27.40
2018-11-22T03:17:47.416Z,27.10
2018-11-22T03:18:33.332Z,28.40
2018-11-22T03:19:49.377Z,27.20
2018-11-22T03:20:25.990Z,27.30
2018-11-22T03:21:27.493Z,27.60
2018-11-22T03:22:27.871Z,28.40
2018-11-22T03:23:28.736Z,27.80
2018-11-22T03:24:27.379Z,28.00
2018-11-22T03:25:47.735Z,27.70
2018-11-22T03:26:27.891Z,28.90
2018-11-22T03:27:34.851Z,28.20
2018-11-22T03:28:33.877Z,28.30
2018-11-22T03:29:26.460Z,28.90
2018-11-22T03:30:26.664Z,28.10
2018-11-22T03:31:26.861Z,28.50
2018-11-22T03:32:27.839Z,28.10
2018-11-22T03:33:30.370Z,28.80
2018-11-22T03:34:33.333Z,28.40
2018-11-22T03:35:31.404Z,28.20
2018-11-22T03:36:32.857Z,27.50
2018-11-22T03:37:32.196Z,28.20
2018-11-22T03:38:28.146Z,28.50
2018-11-22T03:39:29.398Z,28.60
2018-11-22T03:40:44.385Z,27.50
2018-11-22T03:41:30.485Z,29.00
2018-11-22T03:42:31.367Z,28.50
2018-11-22T03:43:33.998Z,27.90
2018-11-22T03:44:31.887Z,28.80
2018-11-22T03:45:33.291Z,30.10
2018-11-22T03:46:32.834Z,30.40
2018-11-22T03:47:33.400Z,29.90
2018-11-22T03:48:29.741Z,29.70
2018-11-22T03:49:29.967Z,28.00
2018-11-22T03:50:41.414Z,28.30
2018-11-22T03:51:46.863Z,28.30
2018-11-22T03:52:32.398Z,28.20
2018-11-22T03:53:30.889Z,29.10
2018-11-22T03:54:40.382Z,28.80
2018-11-22T03:55:30.943Z,28.30
2018-11-22T03:56:34.885Z,28.80
2018-11-22T03:57:47.884Z,29.20
2018-11-22T03:58:31.447Z,28.60
2018-11-22T03:59:32.661Z,30.00
2018-11-22T04:00:32.838Z,29.10
2018-11-22T04:01:34.885Z,28.60
2018-11-22T04:02:47.888Z,30.40
2018-11-22T04:03:35.880Z,29.00
2018-11-22T04:04:34.381Z,28.10
2018-11-22T04:05:32.593Z,29.40
2018-11-22T04:06:35.375Z,28.10
2018-11-22T04:07:36.910Z,27.60
2018-11-22T04:08:33.111Z,28.20
2018-11-22T04:09:33.328Z,28.10
2018-11-22T04:10:40.735Z,27.60
2018-11-22T04:11:34.730Z,27.20
2018-11-22T04:12:57.330Z,27.50
2018-11-22T04:13:58.830Z,27.90
2018-11-22T04:14:50.889Z,27.20
2018-11-22T04:15:35.361Z,28.70
2018-11-22T04:16:38.375Z,27.70
2018-11-22T04:17:51.390Z,28.30
2018-11-22T04:18:38.398Z,27.90
2018-11-22T04:19:36.884Z,27.60
2018-11-22T04:20:37.849Z,26.40
2018-11-22T04:21:38.834Z,27.70
2018-11-22T04:22:51.384Z,29.10
2018-11-22T04:23:43.426Z,27.40
2018-11-22T04:24:36.428Z,27.00
2018-11-22T04:25:57.060Z,26.50
2018-11-22T04:26:37.880Z,27.10
2018-11-22T04:27:44.419Z,26.20
2018-11-22T04:28:39.389Z,26.40
2018-11-22T04:29:39.331Z,25.70
2018-11-22T04:30:38.904Z,24.40
2018-11-22T04:31:40.897Z,25.30
2018-11-22T04:32:37.817Z,26.50
2018-11-22T04:33:37.560Z,25.80
2018-11-22T04:34:41.340Z,25.10
2018-11-22T04:35:41.377Z,26.60
2018-11-22T04:36:41.895Z,26.90
2018-11-22T04:37:46.375Z,26.60
2018-11-22T04:38:38.381Z,26.40
2018-11-22T04:39:40.377Z,26.00
2018-11-22T04:40:47.192Z,25.10
2018-11-22T04:41:41.891Z,26.00
2018-11-22T04:42:41.832Z,25.50
2018-11-22T04:43:40.760Z,26.40
2018-11-22T04:44:39.553Z,25.50
2018-11-22T04:45:41.694Z,26.40
2018-11-22T04:46:41.086Z,25.30
2018-11-22T04:47:42.355Z,25.10
2018-11-22T04:48:44.924Z,25.50
2018-11-22T04:49:45.100Z,23.60
2018-11-22T04:50:40.553Z,23.90
2018-11-22T04:51:42.376Z,24.50
2018-11-22T04:52:42.377Z,25.50
2018-11-22T04:53:43.489Z,23.90
2018-11-22T04:54:42.901Z,24.10
2018-11-22T04:55:48.881Z,24.10
2018-11-22T04:56:43.397Z,24.50
2018-11-22T04:57:44.342Z,25.30
2018-11-22T04:58:42.377Z,26.20
2018-11-22T04:59:43.530Z,24.00
2018-11-22T05:00:45.881Z,25.10
2018-11-22T05:01:43.917Z,25.10
2018-11-22T05:02:44.830Z,25.80
2018-11-22T05:03:44.480Z,25.00
2018-11-22T05:04:46.400Z,24.70
2018-11-22T05:05:42.847Z,24.00
2018-11-22T05:06:44.751Z,24.50
2018-11-22T05:07:43.239Z,25.00
2018-11-22T05:08:43.394Z,28.30
2018-11-22T05:09:43.474Z,27.70
2018-11-22T05:10:47.378Z,26.30
2018-11-22T05:11:51.377Z,28.40
2018-11-22T05:12:59.879Z,25.70
2018-11-22T05:13:44.099Z,24.50
2018-11-22T05:14:47.877Z,24.50
2018-11-22T05:15:48.405Z,25.00
2018-11-22T05:16:47.373Z,24.60
2018-11-22T05:17:45.723Z,25.00
2018-11-22T05:18:45.096Z,24.20
2018-11-22T05:19:46.878Z,31.30
2018-11-22T05:20:45.622Z,29.50
2018-11-22T05:21:46.381Z,28.20
2018-11-22T05:22:47.417Z,27.80
2018-11-22T05:23:48.100Z,27.30
2018-11-22T05:24:46.841Z,28.30
2018-11-22T05:26:13.881Z,26.80
2018-11-22T05:26:46.302Z,24.50
2018-11-22T05:27:46.508Z,25.00
2018-11-22T05:29:02.403Z,25.00
2018-11-22T05:29:47.862Z,26.20
2018-11-22T05:30:48.889Z,26.00
2018-11-22T05:31:48.876Z,26.90
2018-11-22T05:32:48.353Z,25.70
2018-11-22T05:34:09.497Z,24.90
2018-11-22T05:34:55.375Z,24.10
2018-11-22T05:35:49.823Z,26.20
2018-11-22T05:36:55.877Z,25.70
2018-11-22T05:37:50.898Z,24.70
2018-11-22T05:38:49.022Z,24.60
2018-11-22T05:39:48.425Z,24.10
2018-11-22T05:41:00.334Z,24.30
2018-11-22T05:41:50.400Z,25.30
2018-11-22T05:42:50.790Z,25.50
2018-11-22T05:43:52.379Z,27.10
2018-11-22T05:44:49.293Z,25.80
2018-11-22T05:45:52.758Z,25.40
2018-11-22T05:46:50.703Z,27.10
2018-11-22T05:47:51.374Z,26.30
2018-11-22T05:48:51.758Z,26.50
2018-11-22T05:49:50.117Z,26.70
2018-11-22T05:50:52.179Z,26.60
2018-11-22T05:51:54.413Z,26.80
2018-11-22T05:52:54.374Z,32.80
2018-11-22T05:53:54.388Z,26.20
2018-11-22T05:54:52.878Z,26.10
2018-11-22T05:56:12.102Z,26.80
2018-11-22T05:56:52.874Z,27.40
2018-11-22T05:57:53.433Z,26.60
2018-11-22T05:58:52.745Z,25.90
2018-11-22T05:59:55.380Z,25.10
2018-11-22T06:00:53.874Z,25.50
2018-11-22T06:01:53.874Z,25.20
2018-11-22T06:02:53.876Z,25.40
2018-11-22T06:03:53.366Z,24.80
2018-11-22T06:04:54.381Z,25.30
2018-11-22T06:05:54.403Z,25.70
2018-11-22T06:06:54.382Z,25.50
2018-11-22T06:07:54.873Z,24.70
2018-11-22T06:09:00.868Z,24.40
2018-11-22T06:09:53.264Z,25.40
2018-11-22T06:10:54.920Z,25.40
2018-11-22T06:11:53.493Z,24.10
2018-11-22T06:12:56.368Z,24.90
2018-11-22T06:13:55.833Z,25.10
2018-11-22T06:14:55.097Z,25.80
2018-11-22T06:15:55.876Z,25.50
2018-11-22T06:16:56.396Z,25.90
2018-11-22T06:17:58.379Z,26.70
2018-11-22T06:18:55.357Z,25.50
2018-11-22T06:19:56.378Z,25.90
2018-11-22T06:20:56.876Z,27.30
2018-11-22T06:21:56.911Z,27.50
2018-11-22T06:22:56.874Z,30.10
2018-11-22T06:24:11.385Z,32.00
2018-11-22T06:25:03.749Z,27.70
2018-11-22T06:25:57.383Z,28.00
2018-11-22T06:26:57.877Z,26.70
2018-11-22T06:28:08.135Z,26.60
2018-11-22T06:28:56.442Z,26.60
2018-11-22T06:29:56.627Z,26.80
2018-11-22T06:30:57.838Z,27.40
2018-11-22T06:31:58.915Z,26.90
2018-11-22T06:32:58.846Z,26.20
2018-11-22T06:34:00.926Z,26.70
2018-11-22T06:35:01.377Z,27.20
2018-11-22T06:35:58.865Z,27.40
2018-11-22T06:36:59.409Z,27.00
2018-11-22T06:38:02.881Z,27.50
2018-11-22T06:39:01.880Z,27.60
2018-11-22T06:39:59.328Z,27.00
2018-11-22T06:40:58.526Z,27.40
2018-11-22T06:41:58.732Z,26.70
2018-11-22T06:42:59.980Z,26.50
2018-11-22T06:44:02.915Z,26.90
2018-11-22T06:46:38.842Z,26.60
2018-11-22T06:47:32.360Z,27.70
2018-11-22T06:48:35.380Z,27.30
2018-11-22T06:49:33.363Z,27.60
2018-11-22T06:50:35.365Z,26.90
2018-11-22T06:51:35.862Z,26.70
2018-11-22T06:52:54.813Z,26.90
2018-11-22T06:53:33.363Z,27.70
2018-11-22T06:54:43.359Z,27.90
2018-11-22T06:55:36.365Z,27.80
2018-11-22T06:56:39.358Z,28.20
2018-11-22T06:57:34.868Z,28.00
2018-11-22T06:58:34.847Z,28.60
2018-11-22T06:59:37.361Z,28.30
2018-11-22T07:00:35.394Z,27.80
2018-11-22T07:01:35.420Z,28.20
2018-11-22T07:02:55.940Z,29.00
2018-11-22T07:03:36.876Z,28.20
2018-11-22T07:04:36.875Z,28.50
2018-11-22T07:05:35.349Z,28.00
2018-11-22T07:06:37.316Z,28.60
2018-11-22T07:07:34.693Z,28.10
2018-11-22T07:08:35.314Z,27.80
2018-11-22T07:09:36.863Z,27.30
2018-11-22T07:10:42.857Z,28.80
2018-11-22T07:11:36.854Z,28.90
2018-11-22T07:12:35.362Z,28.90
2018-11-22T07:13:37.422Z,28.30
2018-11-22T07:14:37.355Z,28.00
2018-11-22T07:15:41.854Z,29.00
2018-11-22T07:16:35.959Z,28.40
2018-11-22T07:17:37.864Z,28.10
2018-11-22T07:18:40.701Z,27.90
2018-11-22T07:19:39.352Z,27.70
2018-11-22T07:20:39.317Z,27.90
2018-11-22T07:21:52.857Z,28.30
2018-11-22T07:22:38.885Z,28.20
2018-11-22T07:23:38.864Z,27.60
2018-11-22T07:24:40.313Z,27.90
2018-11-22T07:25:39.356Z,27.70
2018-11-22T07:26:37.811Z,27.50
2018-11-22T07:27:53.854Z,29.30
2018-11-22T07:28:40.308Z,30.20
2018-11-22T07:29:39.449Z,29.50
2018-11-22T07:30:42.434Z,29.00
2018-11-22T07:31:42.368Z,27.40
2018-11-22T07:32:38.948Z,26.90
2018-11-22T07:33:40.881Z,28.30
2018-11-22T07:34:39.398Z,28.30
2018-11-22T07:35:41.945Z,28.40
2018-11-22T07:36:43.364Z,27.30
2018-11-22T07:37:40.016Z,28.20
2018-11-22T07:38:40.152Z,28.60
2018-11-22T07:39:47.858Z,27.90
2018-11-22T07:40:40.580Z,27.90
2018-11-22T07:41:42.360Z,27.30
2018-11-22T07:42:57.853Z,27.30
2018-11-22T07:44:02.148Z,27.90
2018-11-22T07:44:43.386Z,27.80
2018-11-22T07:45:49.365Z,27.80
2018-11-22T07:46:50.321Z,27.70
2018-11-22T07:47:42.917Z,27.90
2018-11-22T07:48:42.115Z,28.60
2018-11-22T07:49:49.886Z,27.70
2018-11-22T07:50:50.358Z,27.40
2018-11-22T07:51:45.319Z,27.90
2018-11-22T07:53:03.903Z,27.00
2018-11-22T07:53:43.502Z,27.40
2018-11-22T07:54:44.551Z,26.50
2018-11-22T07:55:45.330Z,26.80
2018-11-22T07:56:43.551Z,27.60
2018-11-22T07:57:45.394Z,27.10
2018-11-22T07:58:50.860Z,27.70
2018-11-22T07:59:45.813Z,27.30
2018-11-22T08:00:46.356Z,27.80
2018-11-22T08:01:45.629Z,27.10
2018-11-22T08:02:52.359Z,26.60
2018-11-22T08:03:48.179Z,28.10
2018-11-22T08:04:45.660Z,27.50
2018-11-22T08:05:50.345Z,26.80
2018-11-22T08:06:47.361Z,27.10
2018-11-22T08:07:46.770Z,27.40
2018-11-22T08:08:47.359Z,26.50
2018-11-22T08:09:49.851Z,26.40
2018-11-22T08:10:52.863Z,26.30
2018-11-22T08:11:47.889Z,27.40
2018-11-22T08:12:46.416Z,26.90
2018-11-22T08:13:50.377Z,26.90
2018-11-22T08:14:49.347Z,27.00
2018-11-22T08:15:46.808Z,27.50
2018-11-22T08:16:49.813Z,26.50
2018-11-22T08:17:50.860Z,26.10
2018-11-22T08:18:48.863Z,27.20
2018-11-22T08:19:51.368Z,26.40
2018-11-22T08:20:51.353Z,26.40
2018-11-22T08:21:48.679Z,25.40
2018-11-22T08:22:47.889Z,27.20
2018-11-22T08:23:49.328Z,26.30
2018-11-22T08:24:51.862Z,25.90
2018-11-22T08:25:56.358Z,26.10
2018-11-22T08:26:50.362Z,27.00
2018-11-22T08:27:50.351Z,25.80
2018-11-22T08:28:53.344Z,26.70
2018-11-22T08:29:48.940Z,26.90
2018-11-22T08:30:50.865Z,27.30
2018-11-22T08:32:04.855Z,26.20
2018-11-22T08:32:52.678Z,27.50
2018-11-22T08:33:49.653Z,27.00
2018-11-22T08:34:52.347Z,26.40
2018-11-22T08:35:51.861Z,27.40
2018-11-22T08:36:50.178Z,26.20
2018-11-22T08:37:57.382Z,26.70
2018-11-22T08:38:50.572Z,26.30
2018-11-22T08:39:53.325Z,25.90
2018-11-22T08:40:50.920Z,25.70
2018-11-22T08:42:06.052Z,24.90
2018-11-22T08:42:55.211Z,25.70
2018-11-22T08:43:51.440Z,25.80
2018-11-22T08:44:53.355Z,24.80
2018-11-22T08:45:55.370Z,25.70
2018-11-22T08:46:51.942Z,25.20
2018-11-22T08:47:53.173Z,25.60
2018-11-22T08:48:53.803Z,25.30
2018-11-22T08:50:08.974Z,25.10
2018-11-22T08:50:57.000Z,24.70
2018-11-22T08:52:16.362Z,26.00
2018-11-22T08:52:52.795Z,25.20
2018-11-22T08:53:57.432Z,24.90
2018-11-22T08:54:54.467Z,24.40
2018-11-22T08:55:53.286Z,24.40
2018-11-22T08:56:55.354Z,25.10
2018-11-22T08:57:55.364Z,25.40
2018-11-22T08:58:56.133Z,25.00
2018-11-22T08:59:57.899Z,24.40
2018-11-22T09:00:55.846Z,25.50
2018-11-22T09:01:54.433Z,24.20
2018-11-22T09:02:56.587Z,25.30
2018-11-22T09:03:54.801Z,25.70
2018-11-22T09:04:54.998Z,25.10
2018-11-22T09:05:56.858Z,24.40
2018-11-22T09:06:57.315Z,25.40
2018-11-22T09:07:56.307Z,24.80
2018-11-22T09:08:55.899Z,24.30
2018-11-22T09:09:56.687Z,24.80
2018-11-22T09:10:58.305Z,24.50
2018-11-22T09:11:58.356Z,25.30
2018-11-22T09:12:58.395Z,25.30
2018-11-22T09:14:01.312Z,26.30
2018-11-22T09:14:57.471Z,24.80
2018-11-22T09:15:58.856Z,25.50
2018-11-22T09:17:13.153Z,25.40
2018-11-22T09:18:12.393Z,51.00
2018-11-22T09:18:59.805Z,38.60
2018-11-22T09:19:57.796Z,26.40
2018-11-22T09:21:01.855Z,24.70
2018-11-22T09:21:58.090Z,24.10
2018-11-22T09:23:01.872Z,24.10
2018-11-22T09:24:01.870Z,23.50
2018-11-22T09:24:59.507Z,24.90
2018-11-22T09:26:00.619Z,24.60
2018-11-22T09:26:58.818Z,24.50
2018-11-22T09:27:59.022Z,24.70
2018-11-22T09:29:01.825Z,23.90
2018-11-22T09:30:00.871Z,23.70
2018-11-22T09:30:59.465Z,24.50
2018-11-22T09:32:00.347Z,24.00
2018-11-22T09:33:03.354Z,24.60
2018-11-22T09:34:07.848Z,25.20
2018-11-22T09:35:01.935Z,24.50
2018-11-22T09:36:01.871Z,24.00
2018-11-22T09:37:15.853Z,23.30
2018-11-22T09:38:00.537Z,23.60
2018-11-22T09:39:00.749Z,24.10
2018-11-22T09:40:02.859Z,25.10
2018-11-22T09:41:01.199Z,24.10
2018-11-22T09:42:02.334Z,24.50
2018-11-22T09:43:07.549Z,25.70
2018-11-22T09:44:03.359Z,25.70
2018-11-22T09:45:01.807Z,24.70
2018-11-22T09:46:04.861Z,24.40
2018-11-22T09:47:07.879Z,23.70
2018-11-22T09:48:13.850Z,24.10
2018-11-22T09:49:04.350Z,24.10
2018-11-22T09:50:02.665Z,23.90
2018-11-22T09:51:02.875Z,24.00
2018-11-22T09:52:06.850Z,24.70
2018-11-22T09:53:04.905Z,24.80
2018-11-22T09:54:03.486Z,23.90
2018-11-22T09:55:05.364Z,23.00
2018-11-22T09:56:03.807Z,22.80
2018-11-22T09:57:05.872Z,23.90
2018-11-22T09:58:05.852Z,23.60
2018-11-22T09:59:04.375Z,23.90
2018-11-22T10:00:07.365Z,23.50
2018-11-22T10:01:06.355Z,23.30
2018-11-22T10:02:07.027Z,24.30
2018-11-22T10:03:07.909Z,23.80
2018-11-22T10:04:13.817Z,22.80
2018-11-22T10:05:06.514Z,23.70
2018-11-22T10:06:08.372Z,23.40
2018-11-22T10:07:08.365Z,22.40
2018-11-22T10:08:10.305Z,24.10
2018-11-22T10:09:09.889Z,23.10
2018-11-22T10:10:06.191Z,23.90
2018-11-22T10:11:06.388Z,23.20
2018-11-22T10:12:08.359Z,26.00
2018-11-22T10:13:07.815Z,24.00
2018-11-22T10:14:06.905Z,23.80
2018-11-22T10:15:08.860Z,22.50
2018-11-22T10:16:07.315Z,23.40
2018-11-22T10:17:10.413Z,23.80
2018-11-22T10:18:09.381Z,24.10
2018-11-22T10:19:11.315Z,23.50
2018-11-22T10:20:23.110Z,23.10
2018-11-22T10:21:09.850Z,23.00
2018-11-22T10:22:09.866Z,22.90
2018-11-22T10:23:09.474Z,23.50
2018-11-22T10:24:09.599Z,22.90
2018-11-22T10:25:08.771Z,22.40
2018-11-22T10:26:10.858Z,22.20
2018-11-22T10:27:16.862Z,22.80
2018-11-22T10:28:12.882Z,23.50
2018-11-22T10:29:10.383Z,22.40
2018-11-22T10:30:18.373Z,22.60
2018-11-22T10:31:13.362Z,22.50
2018-11-22T10:32:11.808Z,22.50
2018-11-22T10:33:10.025Z,23.90
2018-11-22T10:34:11.883Z,24.80
2018-11-22T10:35:11.867Z,24.80
2018-11-22T10:36:17.358Z,22.70
2018-11-22T10:37:11.797Z,24.80
2018-11-22T10:38:13.024Z,25.40
2018-11-22T10:39:12.946Z,22.20
2018-11-22T10:40:12.859Z,21.70
2018-11-22T10:41:12.358Z,22.00
2018-11-22T10:42:12.456Z,21.20
2018-11-22T10:43:16.017Z,21.90
2018-11-22T10:44:13.354Z,22.40
2018-11-22T10:45:13.850Z,22.50
2018-11-22T10:46:12.179Z,22.60
2018-11-22T10:47:13.394Z,24.20
2018-11-22T10:48:12.620Z,25.60
2018-11-22T10:49:14.361Z,25.60
2018-11-22T10:50:14.303Z,24.70
2018-11-22T10:51:13.153Z,24.00
2018-11-22T10:52:20.849Z,24.40
2018-11-22T10:53:15.391Z,24.20
2018-11-22T10:54:13.692Z,23.40
2018-11-22T10:55:13.909Z,22.30
2018-11-22T10:56:17.850Z,22.10
2018-11-22T10:57:15.850Z,21.90
2018-11-22T10:58:30.349Z,22.00
2018-11-22T10:59:18.355Z,21.50
2018-11-22T11:00:15.826Z,21.70
2018-11-22T11:01:16.879Z,21.70
2018-11-22T11:02:15.075Z,21.60
2018-11-22T11:03:16.882Z,21.80
2018-11-22T11:04:15.454Z,21.30
2018-11-22T11:05:17.405Z,21.00
2018-11-22T11:06:23.854Z,22.90
2018-11-22T11:07:23.861Z,34.10
2018-11-22T11:08:31.863Z,23.80
2018-11-22T11:09:17.425Z,22.00
2018-11-22T11:10:17.315Z,22.50
2018-11-22T11:11:18.350Z,21.50
2018-11-22T11:12:17.043Z,21.90
2018-11-22T11:13:21.845Z,22.20
2018-11-22T11:14:18.851Z,22.00
2018-11-22T11:15:19.370Z,22.20
2018-11-22T11:16:17.588Z,23.00
2018-11-22T11:17:19.722Z,22.30
2018-11-22T11:18:21.878Z,22.40
2018-11-22T11:19:19.864Z,22.90
2018-11-22T11:20:18.328Z,22.50
2018-11-22T11:21:20.352Z,22.30
2018-11-22T11:22:22.350Z,23.20
2018-11-22T11:23:20.803Z,22.90
2018-11-22T11:24:19.016Z,22.60
2018-11-22T11:25:26.855Z,22.40
2018-11-22T11:26:23.416Z,22.60
2018-11-22T11:27:23.356Z,22.00
2018-11-22T11:28:50.306Z,22.70
2018-11-22T11:29:58.840Z,22.20
2018-11-22T11:35:10.847Z,23.50
2018-11-22T11:38:02.505Z,22.40
2018-11-22T11:38:54.456Z,22.50
2018-11-22T11:39:36.956Z,22.70
2018-11-22T11:40:44.288Z,22.50
2018-11-22T11:41:31.973Z,22.80
2018-11-22T11:55:09.674Z,23.50
2018-11-22T11:56:04.323Z,22.50
2018-11-22T11:57:22.162Z,22.00
2018-11-22T12:01:15.741Z,23.90
2018-11-22T12:05:30.851Z,23.10
2018-11-22T12:12:38.020Z,22.90
2018-11-22T12:13:50.522Z,22.50
2018-11-22T12:16:18.822Z,22.70
2018-11-22T12:23:38.327Z,22.90
2018-11-22T12:24:35.853Z,21.70
2018-11-22T12:25:37.783Z,23.40
2018-11-22T12:26:33.668Z,22.10
2018-11-22T12:27:34.978Z,23.00
2018-11-22T12:28:33.959Z,23.50
2018-11-22T12:29:35.828Z,22.80
2018-11-22T12:30:34.278Z,23.20
2018-11-22T12:31:36.327Z,24.30
2018-11-22T12:32:37.547Z,22.80
2018-11-22T12:33:35.898Z,22.70
2018-11-22T12:34:38.030Z,22.80
2018-11-22T12:35:36.886Z,23.20
2018-11-22T12:36:36.833Z,22.90
2018-11-22T12:37:39.164Z,23.90
2018-11-22T12:38:36.808Z,24.30
2018-11-22T12:39:39.859Z,23.90
2018-11-22T12:40:36.033Z,24.90
2018-11-22T12:41:37.829Z,25.30
2018-11-22T12:42:38.326Z,25.10
2018-11-22T12:43:37.592Z,24.30
2018-11-22T12:44:39.369Z,24.90
2018-11-22T12:45:38.871Z,24.20
2018-11-22T12:46:42.832Z,23.90
2018-11-22T12:47:40.829Z,23.00
2018-11-22T12:48:37.423Z,26.00
2018-11-22T12:49:41.335Z,26.80
2018-11-22T12:51:00.370Z,26.70
2018-11-22T12:51:40.794Z,26.50
2018-11-22T12:52:38.040Z,24.80
2018-11-22T12:53:39.826Z,24.70
2018-11-22T12:54:39.862Z,24.50
2018-11-22T12:55:38.456Z,25.80
2018-11-22T12:56:42.338Z,25.70
2018-11-22T12:57:39.664Z,25.50
2018-11-22T12:58:39.788Z,23.50
2018-11-22T12:59:40.830Z,24.70
2018-11-22T13:00:41.794Z,24.80
2018-11-22T13:01:41.378Z,24.20
2018-11-22T13:02:41.131Z,25.70
2018-11-22T13:03:41.373Z,24.20
2018-11-22T13:04:39.934Z,24.10
2018-11-22T13:05:40.046Z,25.00
2018-11-22T13:07:02.832Z,24.50
2018-11-22T13:07:42.334Z,23.50
2018-11-22T13:08:42.345Z,23.60
2018-11-22T13:09:40.685Z,25.40
2018-11-22T13:10:42.336Z,24.40
2018-11-22T13:11:47.719Z,24.60
2018-11-22T13:12:48.856Z,24.00
2018-11-22T13:13:42.830Z,23.50
2018-11-22T13:14:43.326Z,25.90
2018-11-22T13:15:43.343Z,24.90
2018-11-22T13:16:45.341Z,23.70
2018-11-22T13:17:42.808Z,24.00
2018-11-22T13:18:42.018Z,23.70
2018-11-22T13:19:43.867Z,23.70
2018-11-22T13:20:50.573Z,25.30
2018-11-22T13:21:42.523Z,26.10
2018-11-22T13:22:43.596Z,26.20
2018-11-22T13:23:42.850Z,31.10
2018-11-22T13:24:43.126Z,26.40
2018-11-22T13:25:46.892Z,27.70
2018-11-22T13:26:45.376Z,24.70
2018-11-22T13:27:48.314Z,23.40
2018-11-22T13:28:52.307Z,24.80
2018-11-22T13:29:45.831Z,24.90
2018-11-22T13:30:44.174Z,34.30
2018-11-22T13:31:46.362Z,38.20
2018-11-22T13:32:46.348Z,35.50
2018-11-22T13:33:46.331Z,44.90
2018-11-22T13:34:44.779Z,40.10
2018-11-22T13:35:46.844Z,41.90
2018-11-22T13:36:45.166Z,33.90